Time;durP1;ratioP1;P1;durP2;ratioP2;P2;SDS_P1;SDS_P2;PMS_P1;PMS_P2;Temp;Humidity;BMP_temperature;BMP_pressure;BME280_temperature;BME280_humidity;BME280_pressure;Samples;Min_cycle;Max_cycle;Signal;HPM_P1;HPM_P2
2022/09/06 00:00:14;;;;;;;;;;;;;;;21.89;65.23;101421.81;5113011;28;19995;-56
2022/09/06 00:02:39;;;;;;;;;;;;;;;21.72;61.50;101455.16;5113370;28;20010;-56
2022/09/06 00:05:05;;;;;;;;;;;;;;;21.72;62.70;101509.34;5113232;28;19955;-57
2022/09/06 00:07:31;;;;;;;;;;;;;;;21.48;66.07;101499.09;5113253;28;19912;-56
2022/09/06 00:09:56;;;;;;;;;;;;;;;21.37;65.08;101505.56;5112944;28;19914;-56
2022/09/06 00:12:22;;;;;;;;;;;;;;;21.40;62.23;101534.19;5113302;28;20046;-57
2022/09/06 00:14:48;;;;;;;;;;;;;;;21.25;66.13;101539.19;5145856;27;19912;-57
2022/09/06 00:17:13;;;;;;;;;;;;;;;21.28;64.65;101531.63;5113387;28;19908;-56
2022/09/06 00:19:38;;;;;;;;;;;;;;;21.08;66.54;101541.69;5111727;28;19914;-56
2022/09/06 00:22:06;;;;;;;;;;;;;;;21.02;65.72;101560.38;5113225;28;20330;-57
2022/09/06 00:24:31;;;;;;;;;;;;;;;21.07;65.26;101556.22;5111496;28;19937;-56
2022/09/06 00:26:57;;;;;;;;;;;;;;;21.10;65.84;101546.97;5113049;28;19908;-57
2022/09/06 00:29:22;;;;;;;;;;;;;;;21.03;64.35;101560.22;5112684;28;19951;-56
2022/09/06 00:31:47;;;;;;;;;;;;;;;20.97;66.19;101568.06;5113283;28;19908;-56
2022/09/06 00:34:12;;;;;;;;;;;;;;;20.96;67.07;101561.81;5112903;28;19929;-56
2022/09/06 00:36:38;;;;;;;;;;;;;;;20.99;67.02;101553.38;5113031;28;19912;-56
2022/09/06 00:39:03;;;;;;;;;;;;;;;21.07;63.10;101544.56;5112639;28;19911;-56
2022/09/06 00:41:28;;;;;;;;;;;;;;;21.17;64.30;101548.06;5113421;28;19998;-56
2022/09/06 00:43:54;;;;;;;;;;;;;;;21.28;65.85;101537.03;5112511;28;19908;-56
2022/09/06 00:46:24;;;;;;;;;;;;;;;21.37;65.57;101526.34;5111648;28;20289;-57
2022/09/06 00:48:52;;;;;;;;;;;;;;;21.43;65.79;101525.75;5145967;27;19912;-56
2022/09/06 00:51:19;;;;;;;;;;;;;;;21.44;66.73;101525.63;5113169;28;19952;-56
2022/09/06 00:53:45;;;;;;;;;;;;;;;21.47;66.33;101519.91;5113070;28;19915;-56
2022/09/06 00:56:13;;;;;;;;;;;;;;;21.48;63.93;101527.00;5116824;28;20324;-56
2022/09/06 00:58:38;;;;;;;;;;;;;;;21.53;62.93;101516.59;5149149;27;19920;-56
2022/09/06 01:01:04;;;;;;;;;;;;;;;21.55;62.40;101511.84;5115493;28;20290;-56
2022/09/06 01:03:29;;;;;;;;;;;;;;;21.57;65.40;101502.75;5116768;28;19912;-56
2022/09/06 01:05:54;;;;;;;;;;;;;;;21.57;64.54;101495.47;5116840;28;19951;-57
2022/09/06 01:08:26;;;;;;;;;;;;;;;21.59;66.61;101492.59;5116374;28;19926;-56
2022/09/06 01:11:02;;;;;;;;;;;;;;;21.58;63.27;101488.19;5115475;28;19908;-57
2022/09/06 01:13:33;;;;;;;;;;;;;;;21.61;64.23;101488.72;5116461;28;20259;-57
2022/09/06 01:16:09;;;;;;;;;;;;;;;21.62;63.15;101479.63;5115304;28;19918;-56
2022/09/06 01:18:46;;;;;;;;;;;;;;;21.61;64.39;101463.50;5116476;28;19953;-57
2022/09/06 01:21:22;;;;;;;;;;;;;;;21.62;64.85;101451.66;5116304;27;19960;-57
2022/09/06 01:24:00;;;;;;;;;;;;;;;21.61;67.29;101441.84;5115260;28;19922;-57
2022/09/06 01:26:28;;;;;;;;;;;;;;;21.52;66.06;101421.97;5115254;28;19907;-57
2022/09/06 01:28:54;;;;;;;;;;;;;;;21.46;66.49;101398.22;5115863;28;20281;-56
2022/09/06 01:31:25;;;;;;;;;;;;;;;21.42;67.30;101395.00;5116261;28;19994;-57
2022/09/06 01:33:50;;;;;;;;;;;;;;;21.42;66.24;101381.47;5116268;28;19937;-56
2022/09/06 01:36:18;;;;;;;;;;;;;;;21.43;67.25;101375.03;5114895;28;19912;-57
2022/09/06 01:38:43;;;;;;;;;;;;;;;21.39;67.26;101368.25;5116227;28;19908;-57
2022/09/06 01:41:09;;;;;;;;;;;;;;;21.32;68.14;101361.69;5114949;28;19998;-57
2022/09/06 01:43:36;;;;;;;;;;;;;;;21.22;68.11;101358.22;5115667;28;19994;-57
2022/09/06 01:46:04;;;;;;;;;;;;;;;21.13;69.98;101338.34;5114655;28;19908;-57
2022/09/06 01:48:51;;;;;;;;;;;;;;;21.07;68.71;101334.41;5115949;28;20389;-57
2022/09/06 01:51:19;;;;;;;;;;;;;;;20.97;71.01;101306.59;5115943;28;19933;-57
2022/09/06 01:53:54;;;;;;;;;;;;;;;20.90;70.04;101291.97;5114786;28;20011;-56
2022/09/06 01:56:41;;;;;;;;;;;;;;;20.77;71.52;101297.75;5116017;28;19920;-57
2022/09/06 01:59:22;;;;;;;;;;;;;;;20.62;72.78;101292.00;5114048;28;20259;-57
2022/09/06 02:02:06;;;;;;;;;;;;;;;20.56;70.09;101316.06;5114518;28;20408;-57
2022/09/06 02:04:37;;;;;;;;;;;;;;;20.50;70.62;101381.50;5115520;28;20324;-57
2022/09/06 02:07:09;;;;;;;;;;;;;;;20.41;71.37;101385.94;5115314;28;19914;-57
2022/09/06 02:09:39;;;;;;;;;;;;;;;20.37;70.87;101339.47;5115574;28;19907;-57
2022/09/06 02:12:06;;;;;;;;;;;;;;;20.37;70.01;101347.56;5115577;28;19946;-56
2022/09/06 02:14:38;;;;;;;;;;;;;;;20.37;67.98;101352.13;5115093;28;19912;-57
2022/09/06 02:17:05;;;;;;;;;;;;;;;20.45;68.88;101340.59;5114075;28;19907;-57
2022/09/06 02:19:56;;;;;;;;;;;;;;;20.54;69.23;101345.97;5115035;28;19914;-57
2022/09/06 02:22:25;;;;;;;;;;;;;;;20.62;67.67;101340.66;5098933;28;19969;-57
2022/09/06 02:24:52;;;;;;;;;;;;;;;20.64;66.12;101341.34;5115227;28;20354;-57
2022/09/06 02:27:18;;;;;;;;;;;;;;;20.63;66.70;101349.63;5115457;28;19908;-56
2022/09/06 02:29:43;;;;;;;;;;;;;;;20.68;65.85;101350.03;5130687;27;19911;-56
2022/09/06 02:32:28;;;;;;;;;;;;;;;20.74;65.16;101348.59;5115221;28;19915;-57
2022/09/06 02:34:55;;;;;;;;;;;;;;;20.75;65.16;101347.56;5114748;28;19956;-57
2022/09/06 02:37:22;;;;;;;;;;;;;;;20.73;66.69;101331.47;5115091;27;19912;-57
2022/09/06 02:39:47;;;;;;;;;;;;;;;20.69;66.62;101334.66;5115104;28;19907;-56
2022/09/06 02:42:14;;;;;;;;;;;;;;;20.63;64.88;101328.00;5113762;28;19907;-56
2022/09/06 02:44:39;;;;;;;;;;;;;;;20.61;65.45;101338.09;5113227;28;19907;-56
2022/09/06 02:47:05;;;;;;;;;;;;;;;20.58;65.33;101341.09;5114939;28;19919;-56
2022/09/06 02:49:30;;;;;;;;;;;;;;;20.61;65.08;101338.94;5114493;28;19911;-57
2022/09/06 02:51:56;;;;;;;;;;;;;;;20.59;65.05;101345.53;5113539;28;19945;-56
2022/09/06 02:54:21;;;;;;;;;;;;;;;20.57;64.90;101350.22;5114613;28;19953;-57
2022/09/06 02:56:47;;;;;;;;;;;;;;;20.54;65.44;101345.97;5115123;28;19911;-57
2022/09/06 02:59:12;;;;;;;;;;;;;;;20.55;64.97;101346.81;5114069;28;19965;-56
2022/09/06 03:01:37;;;;;;;;;;;;;;;20.55;65.14;101358.47;5113140;28;19934;-57
2022/09/06 03:04:02;;;;;;;;;;;;;;;20.52;66.61;101353.38;5114193;28;20441;-56
2022/09/06 03:06:29;;;;;;;;;;;;;;;20.51;65.13;101356.19;5114618;28;19953;-56
2022/09/06 03:08:54;;;;;;;;;;;;;;;20.52;64.87;101349.78;5114164;28;19908;-57
2022/09/06 03:11:19;;;;;;;;;;;;;;;20.54;65.09;101347.81;5114293;28;19923;-57
2022/09/06 03:13:44;;;;;;;;;;;;;;;20.56;65.33;101348.50;5114096;28;19914;-57
2022/09/06 03:16:10;;;;;;;;;;;;;;;20.56;65.52;101353.91;5113742;28;19912;-56
2022/09/06 03:18:35;;;;;;;;;;;;;;;20.53;65.33;101346.97;5112603;28;20356;-57
2022/09/06 03:21:00;;;;;;;;;;;;;;;20.49;65.22;101347.38;5112934;28;19908;-56
2022/09/06 03:23:26;;;;;;;;;;;;;;;20.45;66.48;101349.53;5114130;28;19938;-56
2022/09/06 03:25:51;;;;;;;;;;;;;;;20.41;65.55;101348.13;5112729;28;19954;-57
2022/09/06 03:28:17;;;;;;;;;;;;;;;20.37;64.95;101347.56;5113701;28;20002;-57
2022/09/06 03:30:43;;;;;;;;;;;;;;;20.35;65.49;101352.28;5112806;28;20373;-56
2022/09/06 03:33:09;;;;;;;;;;;;;;;20.31;65.99;101348.16;5147021;27;19908;-57
2022/09/06 03:35:34;;;;;;;;;;;;;;;20.26;65.05;101350.44;5114043;28;19911;-57
2022/09/06 03:38:02;;;;;;;;;;;;;;;20.11;64.90;101330.31;5113683;28;20026;-57
2022/09/06 03:40:29;;;;;;;;;;;;;;;20.25;65.28;101346.06;5113869;28;19955;-56
2022/09/06 03:42:54;;;;;;;;;;;;;;;20.24;65.75;101338.97;5112323;28;19907;-56
2022/09/06 03:45:19;;;;;;;;;;;;;;;20.20;65.00;101335.69;5113757;28;20389;-56
2022/09/06 03:47:45;;;;;;;;;;;;;;;20.17;65.55;101344.06;5113670;28;19908;-56
2022/09/06 03:50:10;;;;;;;;;;;;;;;20.16;66.31;101344.25;5113521;28;19960;-57
2022/09/06 03:52:36;;;;;;;;;;;;;;;20.08;67.04;101333.31;5112410;28;19915;-57
2022/09/06 03:55:02;;;;;;;;;;;;;;;19.95;67.88;101337.19;5112004;28;19911;-57
2022/09/06 03:57:27;;;;;;;;;;;;;;;19.83;67.21;101348.31;5112413;28;20025;-56
2022/09/06 03:59:52;;;;;;;;;;;;;;;19.83;67.63;101348.31;5112880;28;20017;-56
2022/09/06 04:02:18;;;;;;;;;;;;;;;19.77;66.50;101340.78;5113361;28;19920;-56
2022/09/06 04:04:43;;;;;;;;;;;;;;;19.74;66.02;101352.72;5112366;28;20266;-56
2022/09/06 04:07:08;;;;;;;;;;;;;;;19.74;66.34;101353.56;5113404;28;19907;-56
2022/09/06 04:09:33;;;;;;;;;;;;;;;19.72;67.33;101355.56;5113242;28;20310;-56
2022/09/06 04:11:59;;;;;;;;;;;;;;;19.69;66.90;101365.78;5113306;28;19908;-56
2022/09/06 04:14:24;;;;;;;;;;;;;;;19.67;67.25;101365.91;5111454;28;19952;-56
2022/09/06 04:16:49;;;;;;;;;;;;;;;19.66;67.09;101366.06;5113019;28;19947;-56
2022/09/06 04:19:15;;;;;;;;;;;;;;;19.62;66.87;101378.97;5112060;28;19952;-56
2022/09/06 04:21:40;;;;;;;;;;;;;;;19.59;67.76;101373.00;5113334;28;19919;-56
2022/09/06 04:24:08;;;;;;;;;;;;;;;19.57;67.48;101373.16;5111697;28;20353;-57
2022/09/06 04:26:33;;;;;;;;;;;;;;;19.57;66.52;101375.84;5113156;28;19994;-57
2022/09/06 04:28:59;;;;;;;;;;;;;;;19.57;66.92;101377.69;5111624;28;20000;-56
2022/09/06 04:31:24;;;;;;;;;;;;;;;19.53;66.83;101371.75;5113009;28;20368;-56
2022/09/06 04:33:49;;;;;;;;;;;;;;;19.47;67.85;101370.47;5113016;28;20426;-56
2022/09/06 04:36:15;;;;;;;;;;;;;;;19.43;66.37;101374.41;5111935;28;19918;-56
2022/09/06 04:38:42;;;;;;;;;;;;;;;19.42;66.23;101380.81;5111557;28;19912;-56
2022/09/06 04:41:08;;;;;;;;;;;;;;;19.43;67.34;101377.13;5112961;28;19907;-56
2022/09/06 04:43:34;;;;;;;;;;;;;;;19.42;66.88;101379.97;5111203;28;19914;-57
2022/09/06 04:46:08;;;;;;;;;;;;;;;19.40;66.64;101380.09;5112782;28;20006;-56
2022/09/06 04:48:33;;;;;;;;;;;;;;;19.38;67.06;101384.78;5112883;28;19914;-57
2022/09/06 04:50:59;;;;;;;;;;;;;;;19.37;66.35;101384.94;5112762;28;19908;-56
2022/09/06 04:53:24;;;;;;;;;;;;;;;19.32;66.88;101379.94;5112728;28;19908;-57
2022/09/06 04:55:49;;;;;;;;;;;;;;;19.26;68.26;101377.81;5112750;28;19915;-56
2022/09/06 04:58:15;;;;;;;;;;;;;;;19.21;66.60;101383.63;5112451;28;20031;-56
2022/09/06 05:00:43;;;;;;;;;;;;;;;19.19;67.02;101379.38;5112509;28;19916;-55
2022/09/06 05:03:08;;;;;;;;;;;;;;;19.13;66.78;101380.78;5112404;28;19920;-57
2022/09/06 05:05:34;;;;;;;;;;;;;;;19.14;66.88;101376.22;5112376;28;19935;-56
2022/09/06 05:07:59;;;;;;;;;;;;;;;19.13;66.48;101369.16;5112329;28;19914;-57
2022/09/06 05:10:24;;;;;;;;;;;;;;;19.14;67.31;101365.44;5112565;28;19907;-56
2022/09/06 05:12:50;;;;;;;;;;;;;;;19.11;66.50;101366.56;5112538;28;19911;-56
2022/09/06 05:15:16;;;;;;;;;;;;;;;19.11;67.68;101366.56;5111869;28;20389;-57
2022/09/06 05:17:41;;;;;;;;;;;;;;;19.08;66.72;101369.56;5112546;28;19908;-57
2022/09/06 05:20:07;;;;;;;;;;;;;;;19.09;66.72;101371.28;5112340;28;19908;-57
2022/09/06 05:22:32;;;;;;;;;;;;;;;19.04;66.71;101362.75;5111126;28;19933;-57
2022/09/06 05:24:57;;;;;;;;;;;;;;;19.01;70.80;101368.41;5111153;28;19909;-57
2022/09/06 05:27:23;;;;;;;;;;;;;;;18.90;67.09;101369.38;5111139;28;19904;-57
2022/09/06 05:29:48;;;;;;;;;;;;;;;18.91;69.19;101364.84;5111817;28;20385;-56
2022/09/06 05:32:13;;;;;;;;;;;;;;;18.87;69.33;101380.44;5112575;28;19908;-56
2022/09/06 05:34:39;;;;;;;;;;;;;;;18.90;71.33;101382.84;5112244;28;19907;-57
2022/09/06 05:37:04;;;;;;;;;;;;;;;18.90;68.87;101376.63;5111110;28;19998;-56
2022/09/06 05:39:30;;;;;;;;;;;;;;;18.88;72.02;101376.75;5113226;28;19922;-57
2022/09/06 05:41:55;;;;;;;;;;;;;;;18.86;73.82;101380.59;5116060;28;19914;-56
2022/09/06 05:44:20;;;;;;;;;;;;;;;18.78;73.05;101383.97;5113998;28;19915;-57
2022/09/06 05:46:46;;;;;;;;;;;;;;;18.71;76.00;101386.31;5116206;28;19998;-57
2022/09/06 05:49:12;;;;;;;;;;;;;;;18.58;76.67;101388.38;5114374;28;19999;-57
2022/09/06 05:51:37;;;;;;;;;;;;;;;18.53;74.45;101375.34;5115852;28;19912;-57
2022/09/06 05:54:03;;;;;;;;;;;;;;;18.54;76.28;101377.03;5115635;28;20090;-57
2022/09/06 05:56:28;;;;;;;;;;;;;;;18.57;74.37;101384.84;5115699;28;19964;-56
2022/09/06 05:58:53;;;;;;;;;;;;;;;18.66;71.66;101382.31;5114988;27;19922;-57
2022/09/06 06:01:25;;;;;;;;;;;;;;;18.73;74.51;101386.16;5115656;28;19915;-57
2022/09/06 06:03:51;;;;;;;;;;;;;;;18.77;74.21;101382.25;5115450;28;19912;-56
2022/09/06 06:06:16;;;;;;;;;;;;;;;18.82;73.62;101377.28;5115768;28;19908;-57
2022/09/06 06:08:42;;;;;;;;;;;;;;;18.90;73.69;101387.41;5115390;28;20258;-57
2022/09/06 06:11:07;;;;;;;;;;;;;;;18.93;74.27;101384.44;5114260;28;20647;-56
2022/09/06 06:13:35;;;;;;;;;;;;;;;18.98;73.75;101382.19;5114715;28;20002;-56
2022/09/06 06:16:03;;;;;;;;;;;;;;;19.03;73.76;101387.97;5115299;28;19915;-57
2022/09/06 06:18:30;;;;;;;;;;;;;;;18.99;76.50;101384.72;5115269;28;19908;-57
2022/09/06 06:21:15;;;;;;;;;;;;;;;18.95;72.77;101377.06;5113851;28;19907;-57
2022/09/06 06:23:41;;;;;;;;;;;;;;;19.03;75.04;101382.59;5115210;28;19998;-56
2022/09/06 06:26:07;;;;;;;;;;;;;;;19.03;74.39;101375.38;5113791;28;19908;-57
2022/09/06 06:28:34;;;;;;;;;;;;;;;19.10;74.24;101375.66;5130402;27;19908;-57
2022/09/06 06:31:00;;;;;;;;;;;;;;;19.19;72.12;101382.91;5114971;28;19911;-57
2022/09/06 06:33:25;;;;;;;;;;;;;;;19.29;75.68;101373.00;5114864;28;19915;-57
2022/09/06 06:36:03;;;;;;;;;;;;;;;19.37;74.20;101368.75;5113806;28;19943;-56
2022/09/06 06:38:35;;;;;;;;;;;;;;;19.44;74.26;101370.75;5114888;28;20366;-56
2022/09/06 06:41:00;;;;;;;;;;;;;;;19.49;73.98;101375.69;5113354;28;20317;-56
2022/09/06 06:43:26;;;;;;;;;;;;;;;19.60;71.77;101372.88;5114412;28;19908;-56
2022/09/06 06:45:52;;;;;;;;;;;;;;;19.67;73.14;101371.31;5114774;28;19908;-56
2022/09/06 06:48:17;;;;;;;;;;;;;;;19.77;71.29;101367.78;5113466;28;20358;-56
2022/09/06 06:50:43;;;;;;;;;;;;;;;19.84;71.48;101371.59;5112593;28;19959;-56
2022/09/06 06:53:08;;;;;;;;;;;;;;;19.87;72.47;101369.44;5113132;28;19919;-56
2022/09/06 06:55:33;;;;;;;;;;;;;;;19.95;72.93;101364.19;5114549;28;19916;-56
2022/09/06 06:57:59;;;;;;;;;;;;;;;20.05;70.25;101374.13;5114105;28;19970;-56
2022/09/06 07:00:24;;;;;;;;;;;;;;;20.13;70.61;101371.53;5114381;28;19947;-56
2022/09/06 07:02:49;;;;;;;;;;;;;;;20.22;69.33;101364.41;5114268;28;20016;-56
2022/09/06 07:05:17;;;;;;;;;;;;;;;20.30;71.00;101362.69;5113065;28;19921;-56
2022/09/06 07:07:42;;;;;;;;;;;;;;;20.36;70.42;101366.63;5114391;28;19998;-56
2022/09/06 07:10:08;;;;;;;;;;;;;;;20.40;69.35;101362.63;5113996;28;20061;-56
2022/09/06 07:12:33;;;;;;;;;;;;;;;20.48;69.00;101360.03;5114294;28;19907;-56
2022/09/06 07:14:58;;;;;;;;;;;;;;;20.54;71.54;101361.34;5112349;28;19912;-56
2022/09/06 07:17:23;;;;;;;;;;;;;;;20.63;70.24;101366.69;5114256;28;19918;-56
2022/09/06 07:19:54;;;;;;;;;;;;;;;20.73;70.65;101368.50;5112632;28;19952;-56
2022/09/06 07:22:19;;;;;;;;;;;;;;;20.81;69.84;101374.00;5113967;28;19911;-57
2022/09/06 07:24:44;;;;;;;;;;;;;;;20.95;70.86;101380.75;5114056;28;19915;-56
2022/09/06 07:27:09;;;;;;;;;;;;;;;21.06;69.82;101377.81;5114015;28;19918;-56
2022/09/06 07:29:34;;;;;;;;;;;;;;;21.12;67.86;101371.84;5113368;28;20277;-56
2022/09/06 07:32:00;;;;;;;;;;;;;;;21.18;68.62;101379.34;5113671;28;19994;-56
2022/09/06 07:34:25;;;;;;;;;;;;;;;21.22;69.40;101359.06;5112501;28;20324;-56
2022/09/06 07:36:51;;;;;;;;;;;;;;;21.23;68.60;101368.03;5113837;28;20332;-57
2022/09/06 07:39:18;;;;;;;;;;;;;;;21.23;68.04;101381.56;5113604;28;19914;-56
2022/09/06 07:41:46;;;;;;;;;;;;;;;21.28;67.30;101382.81;5112579;28;20006;-57
2022/09/06 07:44:11;;;;;;;;;;;;;;;21.31;67.58;101376.25;5112998;28;20003;-56
2022/09/06 07:46:36;;;;;;;;;;;;;;;21.35;67.81;101382.19;5113791;28;20346;-56
2022/09/06 07:49:07;;;;;;;;;;;;;;;21.42;67.01;101381.47;5112155;28;20374;-56
2022/09/06 07:51:32;;;;;;;;;;;;;;;21.51;67.45;101374.28;5113541;28;20396;-56
2022/09/06 07:53:58;;;;;;;;;;;;;;;21.64;66.50;101366.59;5111847;28;19907;-56
2022/09/06 07:56:24;;;;;;;;;;;;;;;21.71;66.47;101364.13;5112329;28;19916;-56
2022/09/06 07:58:50;;;;;;;;;;;;;;;21.84;65.84;101361.00;5128756;27;19912;-57
2022/09/06 08:01:24;;;;;;;;;;;;;;;21.94;65.79;101354.50;5113442;28;19923;-56
2022/09/06 08:03:50;;;;;;;;;;;;;;;22.05;66.38;101350.66;5113135;28;19916;-56
2022/09/06 08:06:15;;;;;;;;;;;;;;;22.14;64.02;101348.84;5113481;28;20002;-56
2022/09/06 08:08:40;;;;;;;;;;;;;;;22.19;64.34;101358.22;5111774;28;19915;-56
2022/09/06 08:11:06;;;;;;;;;;;;;;;22.29;64.09;101357.25;5111888;28;20380;-56
2022/09/06 08:13:32;;;;;;;;;;;;;;;22.32;64.23;101356.94;5112646;28;19907;-56
2022/09/06 08:15:59;;;;;;;;;;;;;;;22.35;64.75;101360.16;5113268;28;20282;-56
2022/09/06 08:18:24;;;;;;;;;;;;;;;22.31;65.05;101355.25;5113129;28;19907;-56
2022/09/06 08:20:49;;;;;;;;;;;;;;;22.34;64.58;101357.63;5113124;28;19912;-56
2022/09/06 08:23:14;;;;;;;;;;;;;;;22.43;63.98;101368.34;5112833;28;19907;-56
2022/09/06 08:25:42;;;;;;;;;;;;;;;22.40;63.49;101357.81;5113213;28;19911;-56
2022/09/06 08:28:07;;;;;;;;;;;;;;;22.40;63.46;101367.81;5111151;28;19907;-56
2022/09/06 08:30:34;;;;;;;;;;;;;;;22.42;64.23;101379.38;5112994;28;19953;-56
2022/09/06 08:32:59;;;;;;;;;;;;;;;22.49;64.29;101379.56;5111499;28;19915;-56
2022/09/06 08:35:24;;;;;;;;;;;;;;;22.72;62.65;101375.25;5112935;28;19912;-56
2022/09/06 08:37:52;;;;;;;;;;;;;;;22.93;61.91;101363.13;5112689;28;19958;-56
2022/09/06 08:40:20;;;;;;;;;;;;;;;23.16;60.79;101363.41;5111678;28;20401;-56
2022/09/06 08:42:45;;;;;;;;;;;;;;;23.40;61.54;101371.56;5113011;28;19993;-56
2022/09/06 08:45:14;;;;;;;;;;;;;;;23.62;59.84;101375.50;5112344;28;19921;-57
2022/09/06 08:47:39;;;;;;;;;;;;;;;23.77;60.55;101362.97;5111579;28;19908;-56
2022/09/06 08:50:06;;;;;;;;;;;;;;;23.96;58.82;101371.78;5112658;28;19911;-56
2022/09/06 08:52:37;;;;;;;;;;;;;;;24.08;58.91;101366.81;5112531;28;19907;-56
2022/09/06 08:55:17;;;;;;;;;;;;;;;24.24;58.46;101361.38;5112542;28;19911;-57
2022/09/06 08:58:01;;;;;;;;;;;;;;;24.45;57.54;101375.28;5112760;28;19927;-56
2022/09/06 09:00:27;;;;;;;;;;;;;;;24.56;56.92;101365.91;5111434;28;19914;-57
2022/09/06 09:03:02;;;;;;;;;;;;;;;24.72;57.66;101367.69;5112603;28;19915;-57
2022/09/06 09:05:32;;;;;;;;;;;;;;;24.88;55.13;101370.34;5111089;28;20464;-57
2022/09/06 09:08:12;;;;;;;;;;;;;;;24.90;56.51;101375.59;5112506;28;19914;-57
2022/09/06 09:10:43;;;;;;;;;;;;;;;24.98;56.19;101370.09;5112687;28;20086;-57
2022/09/06 09:13:23;;;;;;;;;;;;;;;25.13;54.42;101371.06;5112037;28;19923;-57
2022/09/06 09:15:48;;;;;;;;;;;;;;;25.27;54.49;101355.00;5115887;28;20328;-57
2022/09/06 09:18:17;;;;;;;;;;;;;;;25.42;54.99;101352.34;5116541;28;19911;-57
2022/09/06 09:20:42;;;;;;;;;;;;;;;25.48;54.51;101341.56;5116229;28;19904;-57
2022/09/06 09:23:07;;;;;;;;;;;;;;;25.48;54.29;101348.88;5116275;28;20423;-57
2022/09/06 09:25:36;;;;;;;;;;;;;;;25.54;54.14;101351.72;5115198;28;20010;-57
2022/09/06 09:28:01;;;;;;;;;;;;;;;25.70;54.20;101360.78;5115873;28;19908;-57
2022/09/06 09:30:46;;;;;;;;;;;;;;;25.85;53.35;101356.22;5116245;28;19968;-57
2022/09/06 09:33:30;;;;;;;;;;;;;;;25.94;53.07;101354.28;5114812;28;19907;-57
2022/09/06 09:35:57;;;;;;;;;;;;;;;26.00;53.08;101358.97;5114676;28;19977;-57
2022/09/06 09:38:24;;;;;;;;;;;;;;;26.09;53.88;101359.75;5115991;28;19908;-57
2022/09/06 09:40:50;;;;;;;;;;;;;;;26.27;51.76;101365.72;5114818;28;19950;-57
2022/09/06 09:43:19;;;;;;;;;;;;;;;26.36;52.49;101364.59;5114274;28;19911;-57
2022/09/06 09:45:44;;;;;;;;;;;;;;;26.32;52.46;101356.94;5116296;28;19908;-57
2022/09/06 09:48:38;;;;;;;;;;;;;;;26.39;51.82;101350.56;5115794;28;19919;-57
2022/09/06 09:51:18;;;;;;;;;;;;;;;26.58;52.25;101360.06;5101276;28;19942;-57
2022/09/06 09:53:50;;;;;;;;;;;;;;;26.66;50.60;101357.25;5114646;28;19907;-57
2022/09/06 09:56:16;;;;;;;;;;;;;;;26.82;50.81;101350.72;5115833;28;19962;-57
2022/09/06 09:58:41;;;;;;;;;;;;;;;26.92;49.92;101344.97;5114104;28;19954;-57
2022/09/06 10:01:11;;;;;;;;;;;;;;;27.05;51.03;101355.19;5115566;28;19907;-57
2022/09/06 10:03:36;;;;;;;;;;;;;;;27.24;49.32;101351.88;5115514;28;19919;-57
2022/09/06 10:06:02;;;;;;;;;;;;;;;27.27;49.35;101356.94;5115657;28;19907;-57
2022/09/06 10:08:29;;;;;;;;;;;;;;;27.40;49.64;101364.41;5114271;28;19914;-57
2022/09/06 10:10:56;;;;;;;;;;;;;;;27.53;49.79;101370.03;5115554;28;19908;-57
2022/09/06 10:13:28;;;;;;;;;;;;;;;27.70;49.22;101369.75;5114952;28;19931;-57
2022/09/06 10:15:54;;;;;;;;;;;;;;;27.77;49.15;101363.28;5115610;28;20416;-57
2022/09/06 10:18:19;;;;;;;;;;;;;;;27.83;48.77;101368.00;5114846;27;19911;-57
2022/09/06 10:20:44;;;;;;;;;;;;;;;27.85;48.61;101357.72;5114210;28;19907;-57
2022/09/06 10:23:21;;;;;;;;;;;;;;;28.07;48.83;101366.72;5113803;28;19920;-57
2022/09/06 10:25:46;;;;;;;;;;;;;;;28.31;48.09;101376.34;5114147;28;19933;-57
2022/09/06 10:28:23;;;;;;;;;;;;;;;28.60;47.11;101368.94;5113386;28;19912;-57
2022/09/06 10:30:58;;;;;;;;;;;;;;;28.56;47.24;101367.69;5113855;28;19931;-57
2022/09/06 10:33:43;;;;;;;;;;;;;;;28.59;47.10;101360.94;5114752;28;19915;-57
2022/09/06 10:36:08;;;;;;;;;;;;;;;28.64;47.40;101364.75;5114717;27;20021;-57
2022/09/06 10:38:34;;;;;;;;;;;;;;;28.86;45.43;101368.22;5113578;28;19998;-57
2022/09/06 10:41:18;;;;;;;;;;;;;;;28.86;46.73;101359.19;5115048;28;19918;-57
2022/09/06 10:43:58;;;;;;;;;;;;;;;28.91;46.73;101362.13;5114733;28;19918;-57
2022/09/06 10:46:25;;;;;;;;;;;;;;;29.05;45.50;101358.41;5113642;28;19912;-57
2022/09/06 10:48:52;;;;;;;;;;;;;;;29.03;46.09;101355.03;5114611;28;19931;-57
2022/09/06 10:51:23;;;;;;;;;;;;;;;29.13;46.79;101358.22;5114851;28;19908;-57
2022/09/06 10:53:54;;;;;;;;;;;;;;;29.21;46.72;101359.94;5114552;28;20386;-57
2022/09/06 10:56:22;;;;;;;;;;;;;;;29.15;44.06;101352.53;5114339;28;19912;-57
2022/09/06 10:59:07;;;;;;;;;;;;;;;29.08;45.62;101352.53;5114350;28;20398;-57
2022/09/06 11:01:46;;;;;;;;;;;;;;;29.25;43.48;101363.94;5112476;28;19920;-58
2022/09/06 11:04:19;;;;;;;;;;;;;;;29.22;44.64;101360.78;5114360;27;19953;-57
2022/09/06 11:06:47;;;;;;;;;;;;;;;29.53;45.02;101354.69;5113465;28;20458;-57
2022/09/06 11:09:25;;;;;;;;;;;;;;;29.87;45.27;101362.75;5114191;28;19915;-57
2022/09/06 11:12:01;;;;;;;;;;;;;;;30.14;43.63;101362.72;5114350;28;19919;-57
2022/09/06 11:14:27;;;;;;;;;;;;;;;30.47;42.70;101367.31;5112614;28;19946;-57
2022/09/06 11:17:00;;;;;;;;;;;;;;;30.86;43.02;101369.13;5112757;28;19947;-57
2022/09/06 11:19:31;;;;;;;;;;;;;;;31.13;40.38;101372.56;5112889;28;19956;-57
2022/09/06 11:22:15;;;;;;;;;;;;;;;31.38;39.42;101363.53;5114596;28;19916;-57
2022/09/06 11:24:40;;;;;;;;;;;;;;;31.79;39.55;101375.94;5113997;28;20328;-57
2022/09/06 11:27:08;;;;;;;;;;;;;;;32.40;39.69;101377.91;5113891;28;19913;-57
2022/09/06 11:29:38;;;;;;;;;;;;;;;32.79;37.90;101373.03;5113362;28;19947;-58
2022/09/06 11:32:23;;;;;;;;;;;;;;;33.18;38.07;101373.56;5113754;28;20355;-58
2022/09/06 11:34:56;;;;;;;;;;;;;;;33.80;37.46;101381.59;5113907;27;19914;-58
2022/09/06 11:37:24;;;;;;;;;;;;;;;34.42;34.20;101375.59;5146677;27;20345;-58
2022/09/06 11:40:02;;;;;;;;;;;;;;;34.73;34.55;101371.56;5112603;28;19983;-57
2022/09/06 11:42:47;;;;;;;;;;;;;;;35.33;33.24;101384.06;5112504;28;19994;-57
2022/09/06 11:45:20;;;;;;;;;;;;;;;35.93;30.78;101361.31;5105363;27;20415;-57
2022/09/06 11:47:52;;;;;;;;;;;;;;;36.31;33.71;101373.53;5113981;28;19912;-58
2022/09/06 11:50:17;;;;;;;;;;;;;;;36.89;32.16;101363.78;5113739;28;19911;-58
2022/09/06 11:52:58;;;;;;;;;;;;;;;37.68;29.19;101365.13;5113676;28;20293;-58
2022/09/06 11:55:31;;;;;;;;;;;;;;;38.31;28.32;101359.75;5113545;28;19916;-58
2022/09/06 11:58:00;;;;;;;;;;;;;;;38.60;29.93;101352.66;5113248;28;20006;-58
2022/09/06 12:00:25;;;;;;;;;;;;;;;38.99;28.54;101346.69;5111793;28;19916;-58
2022/09/06 12:02:51;;;;;;;;;;;;;;;39.17;28.56;101361.19;5111875;28;20335;-58
2022/09/06 12:05:18;;;;;;;;;;;;;;;39.34;27.81;101350.66;5112052;28;19949;-58
2022/09/06 12:08:02;;;;;;;;;;;;;;;39.54;26.58;101354.56;5113587;28;19912;-58
2022/09/06 12:10:30;;;;;;;;;;;;;;;39.84;25.56;101340.63;5113367;28;20399;-58
2022/09/06 12:12:55;;;;;;;;;;;;;;;40.03;25.63;101340.03;5113113;28;19952;-58
2022/09/06 12:15:25;;;;;;;;;;;;;;;40.31;29.15;101333.00;5112548;28;20327;-58
2022/09/06 12:17:50;;;;;;;;;;;;;;;40.83;23.78;101332.50;5113305;28;19912;-58
2022/09/06 12:20:36;;;;;;;;;;;;;;;41.05;26.50;101326.50;5113210;28;19952;-58
2022/09/06 12:23:01;;;;;;;;;;;;;;;41.78;27.44;101329.53;5100860;28;20354;-58
2022/09/06 12:25:33;;;;;;;;;;;;;;;42.35;24.34;101334.22;5113032;28;20056;-58
2022/09/06 12:27:58;;;;;;;;;;;;;;;42.37;25.25;101328.34;5112767;28;19911;-58
2022/09/06 12:30:29;;;;;;;;;;;;;;;42.68;22.75;101328.75;5112830;28;19914;-58
2022/09/06 12:32:54;;;;;;;;;;;;;;;42.71;23.02;101336.53;5111649;28;19912;-58
2022/09/06 12:35:23;;;;;;;;;;;;;;;42.80;24.46;101333.94;5111532;28;20397;-58
2022/09/06 12:37:59;;;;;;;;;;;;;;;43.39;25.13;101334.41;5113053;28;19908;-58
2022/09/06 12:40:25;;;;;;;;;;;;;;;43.91;20.39;101327.59;5113062;28;19915;-58